Time;durP1;ratioP1;P1;durP2;ratioP2;P2;SDS_P1;SDS_P2;PMS_P1;PMS_P2;Temp;Humidity;BMP_temperature;BMP_pressure;BME280_temperature;BME280_humidity;BME280_pressure;Samples;Min_cycle;Max_cycle;Signal;HPM_P1;HPM_P2
2023/01/09 00:01:39;;;;;;;2.60;1.45;;;21.80;58.50;;;;;;5018279;28;20021;-63
2023/01/09 00:04:06;;;;;;;2.15;1.25;;;21.80;58.50;;;;;;5024313;28;20026;-63
2023/01/09 00:06:31;;;;;;;2.95;1.30;;;21.80;58.50;;;;;;5019130;28;20036;-63
2023/01/09 00:08:57;;;;;;;2.55;1.27;;;21.80;58.60;;;;;;5018219;28;20037;-64
2023/01/09 00:11:23;;;;;;;2.22;1.30;;;21.80;58.60;;;;;;5020813;28;20109;-63
2023/01/09 00:13:48;;;;;;;2.17;1.27;;;21.70;58.50;;;;;;5019810;28;20037;-63
2023/01/09 00:16:14;;;;;;;1.98;1.30;;;21.70;58.50;;;;;;5021514;28;20053;-64
2023/01/09 00:18:40;;;;;;;2.55;1.48;;;21.70;58.50;;;;;;5019885;28;20060;-64
2023/01/09 00:21:07;;;;;;;2.00;1.20;;;21.70;58.50;;;;;;5020055;28;20065;-64
2023/01/09 00:23:34;;;;;;;1.85;1.27;;;21.70;58.50;;;;;;5019466;28;20037;-64
2023/01/09 00:26:01;;;;;;;2.20;1.23;;;21.70;58.50;;;;;;5026585;28;20393;-63
2023/01/09 00:28:26;;;;;;;2.38;1.40;;;21.70;58.60;;;;;;5018634;28;20033;-63
2023/01/09 00:30:59;;;;;;;2.40;1.30;;;21.70;58.60;;;;;;5020874;28;20380;-63
2023/01/09 00:33:32;;;;;;;3.60;1.33;;;21.70;58.60;;;;;;5017851;28;20094;-64
2023/01/09 00:35:58;;;;;;;2.30;1.30;;;21.70;58.60;;;;;;5025697;28;20033;-63
2023/01/09 00:38:23;;;;;;;2.75;1.20;;;21.60;58.60;;;;;;5020449;28;20372;-63
2023/01/09 00:40:49;;;;;;;1.95;1.20;;;21.60;58.60;;;;;;5018605;28;20030;-63
2023/01/09 00:43:16;;;;;;;2.72;1.30;;;21.60;58.60;;;;;;5018087;28;20080;-63
2023/01/09 00:45:41;;;;;;;2.42;1.33;;;21.60;58.60;;;;;;5017370;28;20017;-64
2023/01/09 00:48:11;;;;;;;2.25;1.40;;;21.60;58.60;;;;;;5023477;28;20030;-63
2023/01/09 00:50:37;;;;;;;2.33;1.50;;;21.60;58.70;;;;;;5017529;28;20095;-64
2023/01/09 00:53:12;;;;;;;2.28;1.30;;;21.60;58.70;;;;;;5015688;28;20021;-63
2023/01/09 00:55:39;;;;;;;1.92;1.17;;;21.60;58.70;;;;;;5026604;28;20385;-64
2023/01/09 00:58:05;;;;;;;2.38;1.20;;;21.60;58.70;;;;;;5018500;28;20041;-64
2023/01/09 01:00:30;;;;;;;1.98;1.20;;;21.50;58.60;;;;;;5019313;28;20064;-63
2023/01/09 01:02:56;;;;;;;2.05;1.30;;;21.50;58.70;;;;;;5019417;28;20038;-63
2023/01/09 01:08:24;;;;;;;1.55;1.10;;;21.50;58.70;;;;;;5017825;28;20376;-63
2023/01/09 01:10:49;;;;;;;1.85;1.10;;;21.50;58.70;;;;;;5025783;28;20545;-63
2023/01/09 01:13:15;;;;;;;2.42;1.20;;;21.50;58.80;;;;;;5014659;28;20100;-63
2023/01/09 01:15:42;;;;;;;2.45;1.20;;;21.50;58.80;;;;;;5021725;28;20038;-63
2023/01/09 01:18:09;;;;;;;2.35;1.20;;;21.40;58.70;;;;;;5019777;28;20098;-64
2023/01/09 01:20:38;;;;;;;1.73;1.10;;;21.40;58.70;;;;;;5018416;28;20539;-63
2023/01/09 01:23:03;;;;;;;2.08;1.27;;;21.40;58.80;;;;;;5022783;28;20041;-63
2023/01/09 01:25:29;;;;;;;1.45;1.10;;;21.40;58.80;;;;;;5022991;28;20033;-63
2023/01/09 01:27:55;;;;;;;3.08;1.40;;;21.40;58.80;;;;;;5019582;28;20532;-64
2023/01/09 01:30:20;;;;;;;2.13;1.33;;;21.40;58.80;;;;;;5013885;28;20045;-63
2023/01/09 01:32:46;;;;;;;2.22;1.30;;;21.40;58.80;;;;;;5017167;28;20057;-63
2023/01/09 01:35:12;;;;;;;1.88;1.17;;;21.40;58.80;;;;;;5018026;28;20036;-64
2023/01/09 01:37:38;;;;;;;1.33;1.00;;;21.40;58.80;;;;;;5018115;28;20076;-64
2023/01/09 01:40:05;;;;;;;1.63;1.10;;;21.40;58.80;;;;;;5019363;28;20030;-63
2023/01/09 01:42:31;;;;;;;1.85;1.20;;;21.40;58.80;;;;;;5016938;28;20029;-62
2023/01/09 01:44:59;;;;;;;2.22;1.25;;;21.30;58.80;;;;;;5016683;28;20041;-63
2023/01/09 01:47:37;;;;;;;1.95;1.17;;;21.30;58.80;;;;;;5017818;28;20038;-63
2023/01/09 01:50:25;;;;;;;2.20;1.17;;;21.40;58.90;;;;;;5017055;28;20549;-63
2023/01/09 01:52:57;;;;;;;2.05;1.40;;;21.30;58.80;;;;;;5018518;28;20386;-63
2023/01/09 01:55:23;;;;;;;2.33;1.20;;;21.30;58.90;;;;;;5015417;28;20528;-63
2023/01/09 01:57:54;;;;;;;1.40;0.90;;;21.30;58.90;;;;;;5019121;28;20025;-63
2023/01/09 02:00:25;;;;;;;2.45;1.30;;;21.30;58.90;;;;;;5019743;28;20118;-63
2023/01/09 02:02:51;;;;;;;2.42;1.42;;;21.30;58.90;;;;;;5019740;28;20041;-63
2023/01/09 02:05:17;;;;;;;1.73;1.10;;;21.30;58.90;;;;;;5020770;28;20033;-63
2023/01/09 02:07:43;;;;;;;1.52;1.00;;;21.30;58.90;;;;;;5021697;28;20037;-63
2023/01/09 02:10:09;;;;;;;2.05;1.30;;;21.20;58.90;;;;;;5020457;28;20033;-63
2023/01/09 02:12:35;;;;;;;1.45;1.00;;;21.20;58.90;;;;;;5019159;28;20045;-63
2023/01/09 02:15:06;;;;;;;1.50;1.00;;;21.20;58.90;;;;;;5023856;28;20087;-63
2023/01/09 02:17:47;;;;;;;1.70;1.05;;;21.20;58.90;;;;;;5040113;28;20044;-64
2023/01/09 02:20:40;;;;;;;1.70;1.10;;;21.20;58.90;;;;;;5024269;28;20032;-63
2023/01/09 02:23:11;;;;;;;2.28;1.20;;;21.20;58.90;;;;;;5029141;28;20046;-63
2023/01/09 02:25:56;;;;;;;1.75;1.13;;;21.20;58.90;;;;;;5017550;28;20033;-64
2023/01/09 02:28:58;;;;;;;1.73;1.30;;;21.20;59.00;;;;;;5022060;28;20072;-64
2023/01/09 02:31:52;;;;;;;1.90;1.20;;;21.20;59.00;;;;;;5020041;28;20533;-63
2023/01/09 02:34:23;;;;;;;1.55;1.08;;;21.20;59.00;;;;;;5021000;28;20056;-63
2023/01/09 02:37:11;;;;;;;1.58;1.10;;;21.10;58.90;;;;;;5025065;28;20445;-63
2023/01/09 02:40:04;;;;;;;1.60;1.08;;;21.10;59.00;;;;;;5020183;28;20474;-63
2023/01/09 02:42:32;;;;;;;2.15;1.40;;;21.10;59.00;;;;;;5022558;28;20032;-63
2023/01/09 02:44:57;;;;;;;1.70;1.20;;;21.10;59.00;;;;;;5037530;28;20360;-63
2023/01/09 02:47:23;;;;;;;1.80;1.20;;;21.10;59.00;;;;;;5027070;28;20122;-64
2023/01/09 02:49:53;;;;;;;1.85;1.10;;;21.10;59.00;;;;;;5018693;28;20066;-63
2023/01/09 02:52:44;;;;;;;1.55;1.00;;;21.10;59.00;;;;;;5025900;28;20025;-63
2023/01/09 02:55:33;;;;;;;1.58;1.00;;;21.10;59.00;;;;;;5023646;28;20024;-63
2023/01/09 02:58:10;;;;;;;1.92;1.10;;;21.10;59.00;;;;;;5021695;28;20508;-63
2023/01/09 03:00:54;;;;;;;1.63;1.15;;;21.00;59.00;;;;;;5036746;28;20130;-63
2023/01/09 03:03:33;;;;;;;2.08;1.33;;;21.10;59.00;;;;;;5015942;28;20520;-64
2023/01/09 03:06:14;;;;;;;1.97;1.33;;;21.10;59.00;;;;;;5020960;28;20033;-63
2023/01/09 03:08:50;;;;;;;1.60;1.00;;;21.10;59.00;;;;;;5017985;28;20300;-63
2023/01/09 03:11:16;;;;;;;1.95;1.17;;;21.10;59.00;;;;;;5019896;28;20039;-63
2023/01/09 03:14:07;;;;;;;1.58;1.27;;;21.10;59.00;;;;;;5019545;28;20114;-63
2023/01/09 03:16:36;;;;;;;1.30;0.93;;;21.00;59.10;;;;;;5018094;28;20033;-63
2023/01/09 03:19:06;;;;;;;1.80;1.10;;;21.00;59.00;;;;;;5019716;28;20745;-63
2023/01/09 03:21:33;;;;;;;1.33;1.00;;;21.00;59.00;;;;;;5027107;28;20040;-63
2023/01/09 03:24:00;;;;;;;2.50;1.05;;;21.00;59.00;;;;;;5021757;28;20037;-64
2023/01/09 03:26:28;;;;;;;2.08;1.23;;;21.00;59.00;;;;;;5022020;28;20120;-63
2023/01/09 03:28:54;;;;;;;1.70;1.10;;;21.00;59.00;;;;;;5018953;28;20048;-63
2023/01/09 03:31:21;;;;;;;1.30;1.00;;;21.00;59.00;;;;;;5019536;28;20033;-63
2023/01/09 03:33:46;;;;;;;1.40;1.00;;;21.00;59.10;;;;;;5020760;28;20030;-63
2023/01/09 03:36:14;;;;;;;1.35;0.98;;;21.00;59.10;;;;;;5021958;28;20022;-63
2023/01/09 03:38:40;;;;;;;1.67;1.13;;;21.00;59.00;;;;;;5019269;28;20022;-63
2023/01/09 03:41:06;;;;;;;2.13;1.20;;;21.00;59.10;;;;;;5020813;28;20445;-63
2023/01/09 03:43:33;;;;;;;1.63;1.10;;;21.00;59.00;;;;;;5020331;28;20030;-63
2023/01/09 03:45:58;;;;;;;2.17;1.20;;;21.00;59.10;;;;;;5021984;28;20065;-63
2023/01/09 03:48:24;;;;;;;1.90;1.20;;;21.00;59.10;;;;;;5020731;28;20064;-63
2023/01/09 03:50:51;;;;;;;1.60;1.15;;;20.90;59.00;;;;;;5017697;28;20388;-63
2023/01/09 03:53:18;;;;;;;1.67;1.10;;;21.00;59.10;;;;;;5021708;28;20033;-63
2023/01/09 03:55:49;;;;;;;1.50;1.20;;;20.90;59.00;;;;;;5017622;28;20037;-64
2023/01/09 03:58:16;;;;;;;1.55;1.00;;;21.00;59.10;;;;;;5019307;28;20054;-64
2023/01/09 04:00:44;;;;;;;1.30;1.05;;;20.90;59.10;;;;;;5018811;28;20116;-64
2023/01/09 04:03:10;;;;;;;1.42;1.10;;;20.90;59.10;;;;;;5020303;28;20099;-63
2023/01/09 04:05:35;;;;;;;1.60;1.00;;;20.90;59.10;;;;;;5024857;28;20025;-63
2023/01/09 04:08:01;;;;;;;1.75;1.20;;;20.90;59.10;;;;;;5027021;28;20053;-63
2023/01/09 04:10:27;;;;;;;1.75;1.15;;;20.90;59.10;;;;;;5017921;28;20186;-63
2023/01/09 04:12:53;;;;;;;1.73;1.25;;;20.90;59.10;;;;;;5022047;28;20026;-63
2023/01/09 04:15:18;;;;;;;1.33;0.98;;;20.90;59.10;;;;;;5017667;28;20030;-63
2023/01/09 04:17:44;;;;;;;1.17;1.00;;;20.90;59.10;;;;;;5022364;28;20049;-63
2023/01/09 04:20:10;;;;;;;1.48;1.15;;;20.90;59.10;;;;;;5021652;28;20184;-64
2023/01/09 04:22:36;;;;;;;1.50;1.10;;;20.90;59.10;;;;;;5021468;28;20349;-64
2023/01/09 04:25:02;;;;;;;1.45;1.10;;;20.90;59.10;;;;;;5022349;28;20037;-64
2023/01/09 04:27:30;;;;;;;1.40;1.00;;;20.90;59.10;;;;;;5017467;28;20034;-64
2023/01/09 04:29:56;;;;;;;1.60;1.20;;;20.90;59.10;;;;;;5020512;28;20032;-64
2023/01/09 04:32:21;;;;;;;1.38;1.00;;;20.90;59.10;;;;;;5023482;28;20112;-63
2023/01/09 04:34:47;;;;;;;2.30;1.20;;;20.80;59.00;;;;;;5017483;28;20062;-63
2023/01/09 04:37:14;;;;;;;1.75;1.10;;;20.90;59.10;;;;;;5025872;28;20445;-64
2023/01/09 04:39:43;;;;;;;1.80;1.20;;;20.80;59.10;;;;;;5016349;28;20076;-63
2023/01/09 04:42:09;;;;;;;1.48;1.20;;;20.80;59.00;;;;;;5017729;28;20109;-63
2023/01/09 04:44:35;;;;;;;1.60;1.10;;;20.90;59.10;;;;;;5018517;28;20473;-63
2023/01/09 04:47:01;;;;;;;1.70;1.10;;;20.80;59.10;;;;;;5019828;28;20116;-63
2023/01/09 04:49:27;;;;;;;1.40;1.08;;;20.80;59.10;;;;;;5015719;28;20030;-64
2023/01/09 04:51:53;;;;;;;1.77;1.00;;;20.80;59.10;;;;;;5016210;28;20022;-63
2023/01/09 04:54:19;;;;;;;1.67;1.10;;;20.80;59.10;;;;;;5024012;28;20022;-63
2023/01/09 04:56:45;;;;;;;1.15;0.93;;;20.80;59.10;;;;;;5022178;28;20311;-64
2023/01/09 04:59:11;;;;;;;1.35;1.10;;;20.80;59.10;;;;;;5022134;28;20034;-64
2023/01/09 05:01:37;;;;;;;1.63;1.10;;;20.80;59.10;;;;;;5022367;28;20501;-64
2023/01/09 05:04:03;;;;;;;0.90;0.80;;;20.80;59.10;;;;;;5022075;28;20025;-64
2023/01/09 05:06:29;;;;;;;1.15;0.90;;;20.80;59.10;;;;;;5021954;28;20029;-64
2023/01/09 05:08:55;;;;;;;2.25;1.10;;;20.80;59.10;;;;;;5017287;28;20032;-63
2023/01/09 05:11:21;;;;;;;1.30;1.00;;;20.80;59.10;;;;;;5017066;28;20071;-64
2023/01/09 05:13:47;;;;;;;1.60;1.10;;;20.80;59.10;;;;;;5022120;28;20059;-65
2023/01/09 05:16:13;;;;;;;1.02;0.90;;;20.80;59.10;;;;;;5019320;28;20057;-64
2023/01/09 05:18:38;;;;;;;1.25;0.90;;;20.80;59.10;;;;;;5020836;28;20022;-64
2023/01/09 05:21:04;;;;;;;1.23;0.80;;;20.80;59.10;;;;;;5017050;28;20026;-63
2023/01/09 05:23:30;;;;;;;1.17;1.00;;;20.80;59.10;;;;;;5020301;28;20041;-63
2023/01/09 05:25:55;;;;;;;1.50;1.20;;;20.80;59.10;;;;;;5020367;28;20034;-63
2023/01/09 05:28:21;;;;;;;1.15;0.95;;;20.70;59.10;;;;;;5021142;28;20034;-63
2023/01/09 05:30:47;;;;;;;1.90;0.90;;;20.70;59.10;;;;;;5018057;28;20499;-63
2023/01/09 05:33:12;;;;;;;1.60;1.05;;;20.70;59.00;;;;;;5015823;28;20504;-64
2023/01/09 05:35:38;;;;;;;0.73;0.70;;;20.70;59.10;;;;;;5017293;28;20034;-63
2023/01/09 05:38:05;;;;;;;1.05;0.90;;;20.70;59.60;;;;;;5023240;28;20025;-63
2023/01/09 05:40:31;;;;;;;1.85;1.08;;;20.70;59.10;;;;;;5016930;28;20513;-63
2023/01/09 05:42:56;;;;;;;1.65;1.10;;;20.70;59.10;;;;;;5020347;28;20026;-63
2023/01/09 05:45:22;;;;;;;1.20;0.90;;;20.70;59.10;;;;;;5013981;28;20037;-64
2023/01/09 05:47:47;;;;;;;1.52;1.10;;;20.70;59.10;;;;;;5020541;28;20038;-63
2023/01/09 05:50:14;;;;;;;1.55;0.90;;;20.70;59.10;;;;;;5021965;28;20141;-63
2023/01/09 05:52:39;;;;;;;1.65;0.98;;;20.70;59.10;;;;;;5020769;28;20472;-63
2023/01/09 05:55:06;;;;;;;1.27;0.95;;;20.70;59.20;;;;;;5018752;28;20021;-64
2023/01/09 05:57:32;;;;;;;1.40;0.80;;;20.70;59.20;;;;;;5016643;28;20104;-63
2023/01/09 05:59:58;;;;;;;1.67;1.20;;;20.70;59.20;;;;;;5017691;28;20109;-64
2023/01/09 06:02:23;;;;;;;1.15;0.90;;;20.70;59.20;;;;;;5016243;28;20473;-63
2023/01/09 06:04:49;;;;;;;1.02;0.90;;;20.70;59.20;;;;;;5016336;28;20030;-63
2023/01/09 06:07:14;;;;;;;1.00;0.90;;;20.70;59.20;;;;;;5018090;28;20017;-64
2023/01/09 06:09:40;;;;;;;1.23;1.00;;;20.70;59.20;;;;;;5021402;28;20034;-63
2023/01/09 06:12:06;;;;;;;1.10;1.00;;;20.70;59.20;;;;;;5017753;28;20100;-63
2023/01/09 06:14:31;;;;;;;1.55;0.90;;;20.70;59.20;;;;;;5015618;28;20030;-64
2023/01/09 06:16:57;;;;;;;0.88;0.80;;;20.70;59.20;;;;;;5017689;28;20426;-63
2023/01/09 06:19:23;;;;;;;1.00;0.90;;;20.70;59.20;;;;;;5016955;28;20069;-63
2023/01/09 06:21:48;;;;;;;1.45;0.90;;;20.70;59.30;;;;;;5020318;28;20500;-64
2023/01/09 06:24:14;;;;;;;1.77;1.10;;;20.70;59.20;;;;;;5014875;28;20486;-63
2023/01/09 06:26:39;;;;;;;1.30;0.90;;;20.70;59.30;;;;;;5019877;28;20117;-63
2023/01/09 06:29:06;;;;;;;1.40;1.00;;;20.70;59.20;;;;;;5018257;28;20412;-62
2023/01/09 06:31:32;;;;;;;1.30;1.00;;;20.70;59.30;;;;;;5018506;28;21018;-63
2023/01/09 06:33:58;;;;;;;1.60;1.00;;;20.60;59.20;;;;;;5016930;28;20110;-63
2023/01/09 06:36:24;;;;;;;1.00;0.90;;;20.60;59.20;;;;;;5015248;28;20029;-63
2023/01/09 06:38:50;;;;;;;1.40;0.90;;;20.60;59.20;;;;;;5017717;28;20104;-63
2023/01/09 06:41:16;;;;;;;1.42;1.00;;;20.70;59.30;;;;;;5020317;28;20560;-65
2023/01/09 06:43:42;;;;;;;1.77;1.00;;;20.60;59.40;;;;;;5018803;28;20457;-64
2023/01/09 06:46:08;;;;;;;1.10;0.90;;;20.60;59.50;;;;;;5015970;28;20034;-64
2023/01/09 06:48:34;;;;;;;1.30;0.90;;;20.60;59.50;;;;;;5023493;28;20025;-65
2023/01/09 06:51:00;;;;;;;1.55;1.00;;;20.60;59.40;;;;;;5023227;28;20025;-64
2023/01/09 06:53:25;;;;;;;1.95;1.10;;;20.70;59.40;;;;;;5022026;28;20026;-64
2023/01/09 06:55:51;;;;;;;2.05;1.00;;;20.70;59.30;;;;;;5019978;28;20030;-63
2023/01/09 06:58:17;;;;;;;2.33;1.20;;;20.70;59.20;;;;;;5021913;28;20085;-63
2023/01/09 07:00:43;;;;;;;2.17;1.20;;;20.70;59.20;;;;;;5021605;28;20487;-64
2023/01/09 07:03:10;;;;;;;3.10;1.20;;;20.70;59.20;;;;;;5020905;28;20042;-63
2023/01/09 07:05:41;;;;;;;2.25;1.40;;;20.80;59.30;;;;;;5017273;28;20036;-65
2023/01/09 07:08:08;;;;;;;2.53;1.20;;;20.80;59.20;;;;;;5019206;28;20157;-64
2023/01/09 07:10:33;;;;;;;2.53;1.30;;;20.80;59.40;;;;;;5020899;28;20030;-65
2023/01/09 07:12:59;;;;;;;2.80;1.48;;;20.80;59.40;;;;;;5028245;28;20361;-65
2023/01/09 07:15:25;;;;;;;2.60;1.38;;;20.90;59.40;;;;;;5018573;28;20087;-64
2023/01/09 07:17:51;;;;;;;2.78;1.38;;;20.90;59.30;;;;;;5021318;28;20388;-64
2023/01/09 07:20:17;;;;;;;3.85;1.60;;;20.90;59.30;;;;;;5024102;28;20033;-64
2023/01/09 07:22:44;;;;;;;3.58;1.60;;;21.00;59.30;;;;;;5024389;28;20052;-63
2023/01/09 07:25:09;;;;;;;2.55;1.35;;;21.00;59.80;;;;;;5022435;28;20108;-63
2023/01/09 07:27:35;;;;;;;3.95;1.70;;;21.00;59.40;;;;;;5019409;28;20049;-64
2023/01/09 07:30:01;;;;;;;4.68;1.50;;;21.00;59.30;;;;;;5024422;28;20040;-63
2023/01/09 07:32:27;;;;;;;3.85;1.45;;;21.00;59.80;;;;;;5021008;28;20026;-64
2023/01/09 07:34:53;;;;;;;3.95;1.48;;;21.10;59.80;;;;;;5024788;28;20103;-63
2023/01/09 07:37:18;;;;;;;3.90;1.60;;;21.10;59.50;;;;;;5024188;28;20054;-62
2023/01/09 07:39:44;;;;;;;4.53;1.80;;;21.10;59.60;;;;;;5021768;28;20041;-64
2023/01/09 07:42:10;;;;;;;6.07;1.90;;;21.10;59.60;;;;;;5021340;28;20077;-63
2023/01/09 07:44:36;;;;;;;4.15;1.90;;;21.20;59.70;;;;;;5021141;28;20021;-63
2023/01/09 07:47:01;;;;;;;3.53;1.75;;;21.20;59.40;;;;;;5020738;28;20583;-63
2023/01/09 07:49:27;;;;;;;4.00;1.60;;;21.20;59.20;;;;;;5020515;28;20113;-64
2023/01/09 07:51:53;;;;;;;3.70;1.90;;;21.30;59.20;;;;;;5023120;28;20132;-63
2023/01/09 07:54:19;;;;;;;4.80;2.00;;;21.30;59.00;;;;;;5025214;28;20458;-63
2023/01/09 07:56:44;;;;;;;4.30;1.80;;;21.30;59.00;;;;;;5020589;28;20053;-66
2023/01/09 07:59:10;;;;;;;4.35;1.77;;;21.30;58.90;;;;;;5022026;28;20030;-63
2023/01/09 08:01:36;;;;;;;5.38;2.05;;;21.40;58.90;;;;;;5020889;28;20113;-64
2023/01/09 08:04:01;;;;;;;5.50;2.33;;;21.40;58.80;;;;;;5018192;28;20052;-63
2023/01/09 08:06:27;;;;;;;5.28;2.00;;;21.40;58.80;;;;;;5020835;28;20028;-63
2023/01/09 08:08:53;;;;;;;4.40;2.20;;;21.40;58.70;;;;;;5017926;28;20088;-63
2023/01/09 08:11:18;;;;;;;5.00;1.85;;;21.50;58.70;;;;;;5015667;28;20033;-64
2023/01/09 08:13:44;;;;;;;3.90;2.20;;;21.50;58.70;;;;;;5025420;28;20079;-64
2023/01/09 08:16:10;;;;;;;4.47;1.98;;;21.50;58.60;;;;;;5019984;28;20044;-63
2023/01/09 08:18:35;;;;;;;5.13;2.15;;;21.50;58.60;;;;;;5022466;28;20026;-63
2023/01/09 08:21:01;;;;;;;4.18;1.98;;;21.50;58.60;;;;;;5018307;28;20516;-65
2023/01/09 08:23:26;;;;;;;4.68;2.00;;;21.50;58.60;;;;;;5017901;28;20397;-63
2023/01/09 08:25:52;;;;;;;4.15;1.90;;;21.60;58.50;;;;;;5019104;28;20026;-63
2023/01/09 08:28:18;;;;;;;4.70;2.22;;;21.50;58.40;;;;;;5017362;28;20029;-65
2023/01/09 08:30:44;;;;;;;4.47;2.35;;;21.60;59.00;;;;;;5022464;28;20191;-64
2023/01/09 08:33:09;;;;;;;4.40;2.22;;;21.60;58.40;;;;;;5022775;28;20481;-64
2023/01/09 08:35:36;;;;;;;5.07;2.25;;;21.60;58.40;;;;;;5022236;28;20025;-63
2023/01/09 08:38:01;;;;;;;5.13;2.03;;;21.70;58.40;;;;;;5017869;28;20034;-65
2023/01/09 08:40:27;;;;;;;6.00;2.20;;;21.70;58.30;;;;;;5019464;28;20097;-63
2023/01/09 08:48:21;;;;;;;3.80;1.90;;;21.70;58.10;;;;;;5021210;28;20041;-63
2023/01/09 08:50:47;;;;;;;5.25;2.35;;;21.70;58.10;;;;;;5017848;28;20033;-65
2023/01/09 08:53:14;;;;;;;3.90;2.00;;;21.70;58.00;;;;;;5021385;28;20036;-65
2023/01/09 08:55:40;;;;;;;4.43;2.00;;;21.80;58.00;;;;;;5019951;28;20109;-64
2023/01/09 08:58:05;;;;;;;3.65;2.00;;;21.80;58.00;;;;;;5019586;28;20108;-64
2023/01/09 09:00:31;;;;;;;5.25;2.00;;;21.80;57.90;;;;;;5021012;28;20121;-64
2023/01/09 09:02:59;;;;;;;3.33;1.85;;;21.80;57.90;;;;;;5022319;28;20542;-63
2023/01/09 09:05:26;;;;;;;4.90;2.10;;;21.80;57.90;;;;;;5018300;28;20477;-63
2023/01/09 09:07:54;;;;;;;3.22;1.95;;;21.80;57.90;;;;;;5021525;28;20029;-63
2023/01/09 09:10:28;;;;;;;4.95;1.98;;;21.80;57.80;;;;;;5020444;28;20033;-63
2023/01/09 09:12:56;;;;;;;3.25;1.65;;;21.80;57.70;;;;;;5015945;28;20034;-63
2023/01/09 09:15:23;;;;;;;5.97;1.98;;;21.80;57.60;;;;;;5021127;28;20037;-62
2023/01/09 09:17:56;;;;;;;4.32;1.80;;;21.80;57.60;;;;;;5017045;28;20030;-63
2023/01/09 09:20:24;;;;;;;4.18;2.00;;;21.80;57.50;;;;;;5017584;28;20085;-63
2023/01/09 09:22:50;;;;;;;5.38;2.33;;;21.80;57.50;;;;;;5015382;28;20041;-64
2023/01/09 09:25:17;;;;;;;4.13;1.80;;;21.80;57.50;;;;;;5016175;28;20060;-64
2023/01/09 09:27:43;;;;;;;3.70;1.90;;;21.80;57.40;;;;;;5016688;28;20405;-63
2023/01/09 09:30:10;;;;;;;4.22;2.00;;;21.80;57.40;;;;;;5017440;28;20033;-63
2023/01/09 09:32:36;;;;;;;4.05;2.03;;;21.80;57.30;;;;;;5016738;28;20034;-63
2023/01/09 09:35:02;;;;;;;4.32;2.05;;;21.80;57.30;;;;;;5020002;28;20096;-63
2023/01/09 09:37:28;;;;;;;3.20;1.73;;;21.80;57.30;;;;;;5017560;28;20026;-63
2023/01/09 09:39:53;;;;;;;4.93;2.10;;;21.80;57.30;;;;;;5015981;28;20026;-63
2023/01/09 09:45:37;;;;;;;3.75;1.65;;;21.80;57.20;;;;;;5019186;28;20143;-63
2023/01/09 09:48:28;;;;;;;4.10;1.90;;;21.80;57.20;;;;;;5019570;28;20464;-64
2023/01/09 09:51:00;;;;;;;4.57;1.90;;;21.80;57.20;;;;;;5018832;28;20128;-63
2023/01/09 09:53:31;;;;;;;4.35;1.88;;;21.70;57.20;;;;;;5019148;28;20025;-63
2023/01/09 09:55:57;;;;;;;3.60;1.70;;;21.70;57.10;;;;;;5017378;28;20501;-63
2023/01/09 09:58:36;;;;;;;3.00;1.40;;;21.80;57.10;;;;;;5023121;28;20030;-63
2023/01/09 10:01:03;;;;;;;3.40;1.58;;;21.70;57.00;;;;;;5018534;28;20516;-63
2023/01/09 10:03:37;;;;;;;3.50;1.80;;;21.70;57.00;;;;;;5016553;28;20035;-63
2023/01/09 10:06:23;;;;;;;3.47;1.65;;;21.70;57.00;;;;;;5019944;28;20034;-63
2023/01/09 10:08:57;;;;;;;3.55;1.63;;;21.70;57.60;;;;;;5020515;28;20053;-63
2023/01/09 10:11:38;;;;;;;3.78;1.63;;;21.70;57.10;;;;;;5017130;28;20029;-63
2023/01/09 10:14:04;;;;;;;4.38;1.67;;;21.70;57.00;;;;;;5018369;28;20080;-64
2023/01/09 10:17:10;;;;;;;3.88;1.73;;;21.70;57.00;;;;;;5021332;28;20397;-64
2023/01/09 10:19:47;;;;;;;3.58;1.90;;;21.70;57.00;;;;;;5015874;28;20108;-63
2023/01/09 10:22:15;;;;;;;2.67;1.48;;;21.70;57.00;;;;;;5018795;28;20027;-64
2023/01/09 10:24:44;;;;;;;3.15;1.63;;;21.60;57.00;;;;;;5018525;28;20048;-63
2023/01/09 10:27:26;;;;;;;3.85;1.80;;;21.60;57.50;;;;;;5020592;28;20496;-63
2023/01/09 10:30:05;;;;;;;3.03;1.60;;;21.60;57.00;;;;;;5018007;28;20465;-63
2023/01/09 10:32:31;;;;;;;;;;;21.60;57.00;;;;;;5019372;28;20022;-63
2023/01/09 10:35:23;;;;;;;3.40;1.58;;;21.60;57.00;;;;;;5026466;28;19999;-63
2023/01/09 10:37:54;;;;;;;3.50;1.98;;;21.60;57.00;;;;;;5021595;28;20040;-63
2023/01/09 10:40:39;;;;;;;3.85;1.88;;;21.60;57.00;;;;;;5018442;28;20030;-63
2023/01/09 10:43:10;;;;;;;3.35;1.55;;;21.60;57.00;;;;;;5021582;28;20044;-63
2023/01/09 10:45:43;;;;;;;3.13;1.48;;;21.60;56.90;;;;;;5019908;28;20477;-63
2023/01/09 10:48:30;;;;;;;3.25;1.55;;;21.60;57.00;;;;;;5020922;28;20396;-63
2023/01/09 10:50:56;;;;;;;3.63;1.55;;;21.50;57.00;;;;;;5022598;28;20026;-65
2023/01/09 10:53:31;;;;;;;3.53;1.60;;;21.50;56.90;;;;;;5027747;28;20041;-63
2023/01/09 10:56:04;;;;;;;2.53;1.50;;;21.50;56.80;;;;;;5021370;28;20037;-63
2023/01/09 10:58:30;;;;;;;4.82;1.95;;;21.50;56.80;;;;;;5021084;28;20485;-63
2023/01/09 11:00:57;;;;;;;3.33;1.90;;;21.50;56.80;;;;;;5027738;28;20053;-63
2023/01/09 11:03:26;;;;;;;3.33;1.55;;;21.50;56.70;;;;;;5021446;28;20495;-63
2023/01/09 11:05:56;;;;;;;2.92;1.40;;;21.50;56.50;;;;;;5035556;28;20040;-63
2023/01/09 11:08:29;;;;;;;2.70;1.38;;;21.50;56.40;;;;;;5019952;28;20045;-63
2023/01/09 11:11:00;;;;;;;2.88;1.48;;;21.50;56.40;;;;;;5020585;28;20457;-62
2023/01/09 11:13:29;;;;;;;3.20;1.30;;;21.50;56.30;;;;;;5022460;28;20045;-64
2023/01/09 11:16:08;;;;;;;2.53;1.23;;;21.50;56.20;;;;;;5020341;28;20355;-63
2023/01/09 11:18:38;;;;;;;2.92;1.23;;;21.50;56.20;;;;;;5018811;28;20029;-63
2023/01/09 11:21:26;;;;;;;3.28;1.50;;;21.50;56.10;;;;;;5021693;28;20041;-63
2023/01/09 11:23:52;;;;;;;2.70;1.20;;;21.50;56.10;;;;;;5023013;28;20054;-64
2023/01/09 11:26:27;;;;;;;2.70;1.40;;;21.50;56.00;;;;;;5020425;28;20029;-64
2023/01/09 11:29:09;;;;;;;2.95;1.30;;;21.40;56.00;;;;;;5023234;28;20040;-64
2023/01/09 11:31:35;;;;;;;2.47;1.33;;;21.50;56.10;;;;;;5020902;28;20140;-63
2023/01/09 11:34:01;;;;;;;3.83;1.55;;;21.50;56.00;;;;;;5018902;28;20450;-63
2023/01/09 11:36:27;;;;;;;2.70;1.40;;;21.50;56.00;;;;;;5022026;28;20461;-64
2023/01/09 11:38:55;;;;;;;3.33;1.50;;;21.50;56.00;;;;;;5021789;28;20112;-63
2023/01/09 11:41:33;;;;;;;2.03;1.13;;;21.50;55.90;;;;;;5024321;28;20036;-65
2023/01/09 11:44:00;;;;;;;2.90;1.27;;;21.50;56.40;;;;;;5019959;28;20327;-65
2023/01/09 11:46:42;;;;;;;2.88;1.25;;;21.50;55.90;;;;;;5017728;28;20105;-64
2023/01/09 11:49:13;;;;;;;2.72;1.30;;;21.50;55.90;;;;;;5018250;28;20539;-65
2023/01/09 11:51:40;;;;;;;3.33;1.40;;;21.50;56.00;;;;;;5022810;28;20037;-63
2023/01/09 11:54:28;;;;;;;3.20;1.33;;;21.60;56.00;;;;;;5023977;28;20327;-63
2023/01/09 11:56:54;;;;;;;3.05;1.33;;;21.60;56.00;;;;;;5021039;28;20026;-65
2023/01/09 11:59:27;;;;;;;2.40;1.15;;;21.60;56.00;;;;;;5019668;28;20373;-63
2023/01/09 12:02:20;;;;;;;3.10;1.25;;;21.60;55.90;;;;;;5028871;28;20033;-66
2023/01/09 12:05:00;;;;;;;3.97;1.38;;;21.60;55.90;;;;;;5018486;28;20050;-64
2023/01/09 12:07:31;;;;;;;2.33;1.30;;;21.70;55.90;;;;;;5022033;28;20033;-66
2023/01/09 12:10:18;;;;;;;2.42;1.13;;;21.60;56.10;;;;;;5018529;28;20474;-65
2023/01/09 12:13:13;;;;;;;1.83;1.00;;;21.60;55.90;;;;;;5018182;28;20505;-63
2023/01/09 12:16:05;;;;;;;1.38;0.90;;;21.70;56.00;;;;;;5018459;28;20394;-66
2023/01/09 12:18:39;;;;;;;2.17;1.20;;;21.70;55.90;;;;;;5019585;28;20048;-64
2023/01/09 12:21:23;;;;;;;2.60;1.23;;;21.70;56.00;;;;;;5021386;28;20025;-63
2023/01/09 12:23:54;;;;;;;2.17;1.10;;;21.70;56.00;;;;;;5021301;28;20030;-65
2023/01/09 12:26:31;;;;;;;2.60;1.10;;;21.70;55.70;;;;;;5024153;28;20025;-63
2023/01/09 12:29:06;;;;;;;2.92;1.20;;;21.80;55.70;;;;;;5019575;28;20507;-64
2023/01/09 12:31:37;;;;;;;3.05;1.25;;;21.80;55.60;;;;;;5019952;28;20037;-66
2023/01/09 12:34:31;;;;;;;2.72;1.15;;;21.80;55.50;;;;;;5017738;28;20469;-64
2023/01/09 12:37:23;;;;;;;1.88;1.10;;;21.80;55.50;;;;;;5019082;28;20026;-64
2023/01/09 12:40:05;;;;;;;3.72;1.40;;;21.80;55.60;;;;;;5016959;28;20421;-64
2023/01/09 12:42:41;;;;;;;3.08;1.42;;;21.90;55.60;;;;;;5020253;28;20029;-64
2023/01/09 12:45:18;;;;;;;2.80;1.10;;;21.90;55.60;;;;;;5018710;28;20116;-64
2023/01/09 12:47:46;;;;;;;2.13;1.10;;;21.90;55.60;;;;;;5021336;28;20022;-65
2023/01/09 12:50:54;;;;;;;2.60;1.20;;;21.90;55.50;;;;;;5018300;28;20202;-65
2023/01/09 12:53:33;;;;;;;3.13;1.10;;;21.90;55.30;;;;;;5018525;28;20113;-63
2023/01/09 12:56:02;;;;;;;2.55;1.15;;;21.90;55.20;;;;;;5020284;28;20018;-65
2023/01/09 12:58:47;;;;;;;2.42;1.25;;;22.00;55.40;;;;;;5021161;28;20083;-65
2023/01/09 13:01:20;;;;;;;2.33;1.33;;;21.90;55.20;;;;;;5018110;28;20456;-63
2023/01/09 13:04:08;;;;;;;2.35;1.10;;;22.00;55.20;;;;;;5017032;28;20430;-65
2023/01/09 13:06:38;;;;;;;2.17;1.10;;;22.00;55.20;;;;;;5017825;28;20541;-65
2023/01/09 13:09:26;;;;;;;1.98;1.00;;;22.00;55.40;;;;;;5018782;28;20362;-66
2023/01/09 13:12:12;;;;;;;3.22;0.90;;;22.00;55.80;;;;;;5017950;28;20105;-67
2023/01/09 13:15:19;;;;;;;2.65;1.10;;;21.90;56.00;;;;;;5017325;28;20099;-65